sensor_id;sensor_type;location;lat;lon;timestamp;pressure;altitude;pressure_sealevel;temperature;humidity
9855;BME280;4966;48.112;9.282;2023-05-03T00:00:06;95362.16;;;7.23;79.06
9855;BME280;4966;48.112;9.282;2023-05-03T00:02:33;95360.75;;;7.12;79.75
9855;BME280;4966;48.112;9.282;2023-05-03T00:05:03;95353.28;;;6.76;82.47
9855;BME280;4966;48.112;9.282;2023-05-03T00:07:29;95351.66;;;6.75;82.34
9855;BME280;4966;48.112;9.282;2023-05-03T00:09:54;95355.28;;;6.84;82.01
9855;BME280;4966;48.112;9.282;2023-05-03T00:12:20;95349.28;;;6.73;82.63
9855;BME280;4966;48.112;9.282;2023-05-03T00:14:45;95348.56;;;6.81;81.93
9855;BME280;4966;48.112;9.282;2023-05-03T00:17:11;95348.91;;;6.94;81.32
9855;BME280;4966;48.112;9.282;2023-05-03T00:19:37;95352.56;;;6.70;82.02
9855;BME280;4966;48.112;9.282;2023-05-03T00:22:02;95346.91;;;6.53;82.76
9855;BME280;4966;48.112;9.282;2023-05-03T00:24:28;95347.97;;;6.38;83.60
9855;BME280;4966;48.112;9.282;2023-05-03T00:26:53;95349.50;;;6.58;82.78
9855;BME280;4966;48.112;9.282;2023-05-03T00:29:18;95353.94;;;6.54;82.52
9855;BME280;4966;48.112;9.282;2023-05-03T00:31:45;95343.81;;;6.59;81.98
9855;BME280;4966;48.112;9.282;2023-05-03T00:34:10;95348.38;;;6.45;82.89
9855;BME280;4966;48.112;9.282;2023-05-03T00:36:36;95342.69;;;6.47;82.58
9855;BME280;4966;48.112;9.282;2023-05-03T00:39:01;95346.81;;;6.58;81.57
9855;BME280;4966;48.112;9.282;2023-05-03T00:41:26;95347.75;;;6.67;79.31
9855;BME280;4966;48.112;9.282;2023-05-03T00:43:52;95342.97;;;6.45;80.08
9855;BME280;4966;48.112;9.282;2023-05-03T00:46:17;95347.69;;;6.21;82.30
9855;BME280;4966;48.112;9.282;2023-05-03T00:48:44;95338.19;;;6.23;82.12
9855;BME280;4966;48.112;9.282;2023-05-03T00:51:12;95325.13;;;6.30;82.25
9855;BME280;4966;48.112;9.282;2023-05-03T00:53:39;95330.66;;;6.20;82.86
9855;BME280;4966;48.112;9.282;2023-05-03T00:56:05;95333.19;;;6.49;80.87
9855;BME280;4966;48.112;9.282;2023-05-03T00:58:31;95344.38;;;6.43;80.28
9855;BME280;4966;48.112;9.282;2023-05-03T01:00:57;95335.69;;;6.27;81.85
9855;BME280;4966;48.112;9.282;2023-05-03T01:03:23;95335.59;;;6.32;81.31
9855;BME280;4966;48.112;9.282;2023-05-03T01:06:09;95341.91;;;6.27;81.10
9855;BME280;4966;48.112;9.282;2023-05-03T01:09:01;95340.97;;;6.18;81.35
9855;BME280;4966;48.112;9.282;2023-05-03T01:11:46;95342.94;;;6.12;81.61
9855;BME280;4966;48.112;9.282;2023-05-03T01:17:01;95336.88;;;6.21;81.67
9855;BME280;4966;48.112;9.282;2023-05-03T01:19:47;95336.75;;;6.12;82.29
9855;BME280;4966;48.112;9.282;2023-05-03T01:25:13;95332.66;;;6.14;81.65
9855;BME280;4966;48.112;9.282;2023-05-03T01:27:41;95331.19;;;6.03;82.33
9855;BME280;4966;48.112;9.282;2023-05-03T01:30:08;95332.28;;;6.02;82.43
9855;BME280;4966;48.112;9.282;2023-05-03T01:35:48;95336.53;;;6.08;80.96
9855;BME280;4966;48.112;9.282;2023-05-03T01:38:16;95340.16;;;6.17;79.52
9855;BME280;4966;48.112;9.282;2023-05-03T01:40:46;95340.13;;;6.04;80.49
9855;BME280;4966;48.112;9.282;2023-05-03T01:43:15;95336.66;;;5.98;80.34
9855;BME280;4966;48.112;9.282;2023-05-03T01:45:41;95334.59;;;5.71;81.32
9855;BME280;4966;48.112;9.282;2023-05-03T01:48:12;95338.00;;;5.76;81.01
9855;BME280;4966;48.112;9.282;2023-05-03T01:50:38;95333.38;;;5.82;81.39
9855;BME280;4966;48.112;9.282;2023-05-03T01:53:03;95332.09;;;5.93;81.00
9855;BME280;4966;48.112;9.282;2023-05-03T01:55:29;95335.00;;;6.02;79.52
9855;BME280;4966;48.112;9.282;2023-05-03T01:57:54;95323.53;;;5.91;79.08
9855;BME280;4966;48.112;9.282;2023-05-03T02:00:20;95327.59;;;5.70;79.82
9855;BME280;4966;48.112;9.282;2023-05-03T02:02:45;95324.59;;;5.71;80.28
9855;BME280;4966;48.112;9.282;2023-05-03T02:05:11;95322.56;;;5.63;80.68
9855;BME280;4966;48.112;9.282;2023-05-03T02:07:36;95322.38;;;5.54;81.58
9855;BME280;4966;48.112;9.282;2023-05-03T02:10:03;95316.72;;;5.56;81.74
9855;BME280;4966;48.112;9.282;2023-05-03T02:12:29;95318.13;;;5.72;81.57
9855;BME280;4966;48.112;9.282;2023-05-03T02:14:54;95316.91;;;5.60;80.74
9855;BME280;4966;48.112;9.282;2023-05-03T02:17:19;95320.09;;;5.43;81.31
9855;BME280;4966;48.112;9.282;2023-05-03T02:19:45;95321.00;;;5.14;86.03
9855;BME280;4966;48.112;9.282;2023-05-03T02:22:10;95323.13;;;5.41;84.22
9855;BME280;4966;48.112;9.282;2023-05-03T02:24:36;95322.25;;;5.65;82.30
9855;BME280;4966;48.112;9.282;2023-05-03T02:27:02;95318.38;;;5.52;82.15
9855;BME280;4966;48.112;9.282;2023-05-03T02:29:31;95311.81;;;5.39;82.66
9855;BME280;4966;48.112;9.282;2023-05-03T02:31:56;95320.78;;;5.53;83.64
9855;BME280;4966;48.112;9.282;2023-05-03T02:34:22;95314.00;;;5.56;83.63
9855;BME280;4966;48.112;9.282;2023-05-03T02:36:47;95312.88;;;5.38;85.55
9855;BME280;4966;48.112;9.282;2023-05-03T02:39:13;95314.47;;;5.63;84.65
9855;BME280;4966;48.112;9.282;2023-05-03T02:41:38;95317.22;;;5.58;83.45
9855;BME280;4966;48.112;9.282;2023-05-03T02:44:03;95312.31;;;5.41;83.31
9855;BME280;4966;48.112;9.282;2023-05-03T02:46:29;95319.06;;;5.39;83.43
9855;BME280;4966;48.112;9.282;2023-05-03T02:48:55;95320.41;;;5.41;83.34
9855;BME280;4966;48.112;9.282;2023-05-03T02:51:20;95319.59;;;5.41;83.48
9855;BME280;4966;48.112;9.282;2023-05-03T02:53:45;95321.13;;;5.47;82.45
9855;BME280;4966;48.112;9.282;2023-05-03T02:56:11;95321.50;;;5.40;82.30
9855;BME280;4966;48.112;9.282;2023-05-03T02:58:36;95313.84;;;5.47;81.48
9855;BME280;4966;48.112;9.282;2023-05-03T03:01:01;95316.00;;;5.26;82.57
9855;BME280;4966;48.112;9.282;2023-05-03T03:03:27;95312.22;;;5.27;82.78
9855;BME280;4966;48.112;9.282;2023-05-03T03:05:52;95314.44;;;5.44;82.72
9855;BME280;4966;48.112;9.282;2023-05-03T03:08:17;95322.19;;;5.51;82.73
9855;BME280;4966;48.112;9.282;2023-05-03T03:10:43;95314.72;;;5.43;83.65
9855;BME280;4966;48.112;9.282;2023-05-03T03:13:08;95321.31;;;5.56;82.28
9855;BME280;4966;48.112;9.282;2023-05-03T03:15:33;95318.28;;;5.38;81.89
9855;BME280;4966;48.112;9.282;2023-05-03T03:17:59;95319.66;;;5.36;82.67
9855;BME280;4966;48.112;9.282;2023-05-03T03:20:25;95321.22;;;5.42;82.79
9855;BME280;4966;48.112;9.282;2023-05-03T03:22:50;95319.53;;;5.22;83.64
9855;BME280;4966;48.112;9.282;2023-05-03T03:25:16;95322.00;;;5.42;81.98
9855;BME280;4966;48.112;9.282;2023-05-03T03:27:41;95314.97;;;5.22;82.69
9855;BME280;4966;48.112;9.282;2023-05-03T03:30:07;95325.41;;;5.29;82.44
9855;BME280;4966;48.112;9.282;2023-05-03T03:32:33;95326.03;;;5.21;82.42
9855;BME280;4966;48.112;9.282;2023-05-03T03:34:59;95326.72;;;5.31;81.24
9855;BME280;4966;48.112;9.282;2023-05-03T03:37:24;95326.84;;;5.21;81.55
9855;BME280;4966;48.112;9.282;2023-05-03T03:39:50;95326.09;;;5.16;82.29
9855;BME280;4966;48.112;9.282;2023-05-03T03:42:15;95325.13;;;5.06;82.86
9855;BME280;4966;48.112;9.282;2023-05-03T03:44:41;95324.03;;;5.07;83.74
9855;BME280;4966;48.112;9.282;2023-05-03T03:47:06;95328.22;;;5.19;83.31
9855;BME280;4966;48.112;9.282;2023-05-03T03:49:31;95337.97;;;5.15;83.53
9855;BME280;4966;48.112;9.282;2023-05-03T03:51:57;95339.88;;;5.14;83.93
9855;BME280;4966;48.112;9.282;2023-05-03T03:54:22;95336.25;;;5.24;83.22
9855;BME280;4966;48.112;9.282;2023-05-03T03:56:48;95337.69;;;5.16;83.52
9855;BME280;4966;48.112;9.282;2023-05-03T03:59:13;95334.47;;;5.14;82.93
9855;BME280;4966;48.112;9.282;2023-05-03T04:01:38;95328.94;;;5.05;82.89
9855;BME280;4966;48.112;9.282;2023-05-03T04:04:04;95329.59;;;4.92;83.34
9855;BME280;4966;48.112;9.282;2023-05-03T04:06:29;95333.28;;;5.01;83.27
9855;BME280;4966;48.112;9.282;2023-05-03T04:08:56;95350.31;;;5.21;82.16
9855;BME280;4966;48.112;9.282;2023-05-03T04:11:21;95341.88;;;5.03;82.08
9855;BME280;4966;48.112;9.282;2023-05-03T04:13:47;95336.25;;;5.00;82.80
9855;BME280;4966;48.112;9.282;2023-05-03T04:16:13;95340.97;;;5.13;82.11
9855;BME280;4966;48.112;9.282;2023-05-03T04:18:39;95336.50;;;5.03;83.13
9855;BME280;4966;48.112;9.282;2023-05-03T04:21:05;95349.06;;;5.13;82.63
9855;BME280;4966;48.112;9.282;2023-05-03T04:23:30;95344.75;;;5.12;82.79
9855;BME280;4966;48.112;9.282;2023-05-03T04:25:56;95349.81;;;5.19;82.78
9855;BME280;4966;48.112;9.282;2023-05-03T04:28:22;95356.38;;;5.31;82.21
9855;BME280;4966;48.112;9.282;2023-05-03T04:30:47;95357.31;;;5.22;82.58
9855;BME280;4966;48.112;9.282;2023-05-03T04:33:13;95354.56;;;5.27;82.88
9855;BME280;4966;48.112;9.282;2023-05-03T04:35:39;95347.94;;;5.38;82.44
9855;BME280;4966;48.112;9.282;2023-05-03T04:38:05;95345.09;;;5.29;83.33
9855;BME280;4966;48.112;9.282;2023-05-03T04:40:31;95346.75;;;5.49;82.15
9855;BME280;4966;48.112;9.282;2023-05-03T04:42:56;95350.94;;;5.61;81.49
9855;BME280;4966;48.112;9.282;2023-05-03T04:45:22;95354.50;;;5.56;81.89
9855;BME280;4966;48.112;9.282;2023-05-03T04:47:48;95358.66;;;5.67;80.96
9855;BME280;4966;48.112;9.282;2023-05-03T04:50:13;95357.72;;;5.58;81.38
9855;BME280;4966;48.112;9.282;2023-05-03T04:52:39;95357.13;;;5.61;81.75
9855;BME280;4966;48.112;9.282;2023-05-03T04:55:05;95357.22;;;5.75;81.09
9855;BME280;4966;48.112;9.282;2023-05-03T04:57:30;95361.41;;;5.62;81.51
9855;BME280;4966;48.112;9.282;2023-05-03T04:59:56;95354.59;;;5.70;81.78
9855;BME280;4966;48.112;9.282;2023-05-03T05:02:22;95363.19;;;5.91;81.92
9855;BME280;4966;48.112;9.282;2023-05-03T05:04:47;95359.66;;;5.95;82.09
9855;BME280;4966;48.112;9.282;2023-05-03T05:07:13;95363.50;;;6.27;80.82
9855;BME280;4966;48.112;9.282;2023-05-03T05:09:38;95368.78;;;6.37;81.76
9855;BME280;4966;48.112;9.282;2023-05-03T05:12:04;95367.34;;;6.59;81.44
9855;BME280;4966;48.112;9.282;2023-05-03T05:14:30;95367.28;;;6.64;80.90
9855;BME280;4966;48.112;9.282;2023-05-03T05:16:56;95375.19;;;6.74;81.25
9855;BME280;4966;48.112;9.282;2023-05-03T05:19:21;95371.97;;;7.05;80.97
9855;BME280;4966;48.112;9.282;2023-05-03T05:21:47;95382.22;;;7.22;83.05
9855;BME280;4966;48.112;9.282;2023-05-03T05:24:12;95375.31;;;7.71;81.47
9855;BME280;4966;48.112;9.282;2023-05-03T05:26:37;95376.63;;;7.60;84.32
9855;BME280;4966;48.112;9.282;2023-05-03T05:29:03;95377.94;;;8.13;83.75
9855;BME280;4966;48.112;9.282;2023-05-03T05:31:28;95377.66;;;8.14;89.46
9855;BME280;4966;48.112;9.282;2023-05-03T05:33:54;95383.13;;;8.59;85.05
9855;BME280;4966;48.112;9.282;2023-05-03T05:36:19;95378.88;;;8.89;84.51
9855;BME280;4966;48.112;9.282;2023-05-03T05:38:45;95382.84;;;9.14;86.61
9855;BME280;4966;48.112;9.282;2023-05-03T05:41:10;95385.59;;;9.54;83.83
9855;BME280;4966;48.112;9.282;2023-05-03T05:43:36;95375.75;;;9.36;86.65
9855;BME280;4966;48.112;9.282;2023-05-03T05:46:01;95383.66;;;9.46;87.35
9855;BME280;4966;48.112;9.282;2023-05-03T05:48:27;95385.56;;;10.03;85.97
9855;BME280;4966;48.112;9.282;2023-05-03T05:50:53;95393.19;;;10.32;84.14
9855;BME280;4966;48.112;9.282;2023-05-03T05:53:18;95390.28;;;10.46;83.06
9855;BME280;4966;48.112;9.282;2023-05-03T05:55:43;95389.31;;;10.33;83.29
9855;BME280;4966;48.112;9.282;2023-05-03T05:58:09;95393.16;;;10.67;81.03
9855;BME280;4966;48.112;9.282;2023-05-03T06:00:36;95395.53;;;11.03;79.85
9855;BME280;4966;48.112;9.282;2023-05-03T06:03:01;95396.84;;;10.97;79.10
9855;BME280;4966;48.112;9.282;2023-05-03T06:05:26;95393.66;;;10.78;79.53
9855;BME280;4966;48.112;9.282;2023-05-03T06:07:52;95395.91;;;10.50;81.03
9855;BME280;4966;48.112;9.282;2023-05-03T06:10:17;95401.66;;;10.57;80.53
9855;BME280;4966;48.112;9.282;2023-05-03T06:12:43;95394.22;;;10.14;83.61
9855;BME280;4966;48.112;9.282;2023-05-03T06:15:08;95404.53;;;10.86;81.15
9855;BME280;4966;48.112;9.282;2023-05-03T06:17:34;95401.94;;;10.99;80.44
9855;BME280;4966;48.112;9.282;2023-05-03T06:20:00;95399.28;;;10.73;80.49
9855;BME280;4966;48.112;9.282;2023-05-03T06:22:25;95399.25;;;10.81;81.07
9855;BME280;4966;48.112;9.282;2023-05-03T06:24:51;95413.16;;;10.89;80.86
9855;BME280;4966;48.112;9.282;2023-05-03T06:27:17;95403.03;;;11.24;79.10
9855;BME280;4966;48.112;9.282;2023-05-03T06:29:42;95412.66;;;11.21;78.93
9855;BME280;4966;48.112;9.282;2023-05-03T06:32:11;95408.41;;;11.41;78.07
9855;BME280;4966;48.112;9.282;2023-05-03T06:34:36;95411.50;;;11.40;77.75
9855;BME280;4966;48.112;9.282;2023-05-03T06:37:02;95411.94;;;11.42;76.56
9855;BME280;4966;48.112;9.282;2023-05-03T06:39:27;95416.16;;;11.31;78.25
9855;BME280;4966;48.112;9.282;2023-05-03T06:41:53;95410.06;;;11.34;77.93
9855;BME280;4966;48.112;9.282;2023-05-03T06:44:19;95403.09;;;11.54;76.95
9855;BME280;4966;48.112;9.282;2023-05-03T06:46:44;95405.97;;;11.57;76.55
9855;BME280;4966;48.112;9.282;2023-05-03T06:49:10;95400.91;;;11.85;75.07
9855;BME280;4966;48.112;9.282;2023-05-03T06:51:35;95398.66;;;11.87;75.26
9855;BME280;4966;48.112;9.282;2023-05-03T06:54:01;95386.88;;;12.04;74.05
9855;BME280;4966;48.112;9.282;2023-05-03T06:56:37;95392.59;;;12.11;73.12
9855;BME280;4966;48.112;9.282;2023-05-03T06:59:02;95392.88;;;12.19;72.59
9855;BME280;4966;48.112;9.282;2023-05-03T07:01:29;95388.63;;;12.51;71.90
9855;BME280;4966;48.112;9.282;2023-05-03T07:03:55;95381.13;;;12.48;71.85
9855;BME280;4966;48.112;9.282;2023-05-03T07:06:20;95389.16;;;12.44;71.69
9855;BME280;4966;48.112;9.282;2023-05-03T07:08:51;95388.63;;;12.51;69.86
9855;BME280;4966;48.112;9.282;2023-05-03T07:11:21;95388.19;;;11.98;72.73
9855;BME280;4966;48.112;9.282;2023-05-03T07:13:50;95388.91;;;12.37;71.30
9855;BME280;4966;48.112;9.282;2023-05-03T07:16:16;95389.84;;;12.41;71.63
9855;BME280;4966;48.112;9.282;2023-05-03T07:18:41;95386.75;;;12.64;71.56
9855;BME280;4966;48.112;9.282;2023-05-03T07:21:06;95390.31;;;12.64;69.23
9855;BME280;4966;48.112;9.282;2023-05-03T07:23:32;95391.75;;;12.62;70.32
9855;BME280;4966;48.112;9.282;2023-05-03T07:25:57;95395.94;;;12.80;69.60
9855;BME280;4966;48.112;9.282;2023-05-03T07:28:23;95386.03;;;12.75;69.64
9855;BME280;4966;48.112;9.282;2023-05-03T07:30:49;95388.06;;;12.45;71.03
9855;BME280;4966;48.112;9.282;2023-05-03T07:33:15;95388.88;;;13.00;69.07
9855;BME280;4966;48.112;9.282;2023-05-03T07:35:40;95382.88;;;13.19;68.61
9855;BME280;4966;48.112;9.282;2023-05-03T07:38:06;95378.09;;;13.49;66.37
9855;BME280;4966;48.112;9.282;2023-05-03T07:40:31;95383.22;;;13.05;67.30
9855;BME280;4966;48.112;9.282;2023-05-03T07:43:00;95384.06;;;12.97;68.00
9855;BME280;4966;48.112;9.282;2023-05-03T07:45:25;95378.28;;;12.98;67.69
9855;BME280;4966;48.112;9.282;2023-05-03T07:47:51;95386.13;;;12.46;72.12
9855;BME280;4966;48.112;9.282;2023-05-03T07:50:17;95378.94;;;13.29;68.03
9855;BME280;4966;48.112;9.282;2023-05-03T07:52:42;95375.09;;;13.30;68.81
9855;BME280;4966;48.112;9.282;2023-05-03T07:55:08;95371.31;;;13.22;67.07
9855;BME280;4966;48.112;9.282;2023-05-03T07:57:33;95370.22;;;13.48;68.57
9855;BME280;4966;48.112;9.282;2023-05-03T07:59:59;95371.19;;;13.89;65.59
9855;BME280;4966;48.112;9.282;2023-05-03T08:02:24;95366.13;;;13.29;65.24
9855;BME280;4966;48.112;9.282;2023-05-03T08:04:50;95375.09;;;12.75;69.29
9855;BME280;4966;48.112;9.282;2023-05-03T08:07:15;95373.81;;;13.73;66.52
9855;BME280;4966;48.112;9.282;2023-05-03T08:09:41;95369.81;;;13.82;64.70
9855;BME280;4966;48.112;9.282;2023-05-03T08:12:07;95356.69;;;13.88;65.49
9855;BME280;4966;48.112;9.282;2023-05-03T08:14:32;95365.13;;;13.83;64.58
9855;BME280;4966;48.112;9.282;2023-05-03T08:16:58;95361.16;;;13.80;66.01
9855;BME280;4966;48.112;9.282;2023-05-03T08:19:24;95356.28;;;14.39;63.12
9855;BME280;4966;48.112;9.282;2023-05-03T08:21:49;95367.84;;;14.08;63.53
9855;BME280;4966;48.112;9.282;2023-05-03T08:24:18;95357.34;;;14.22;63.32
9855;BME280;4966;48.112;9.282;2023-05-03T08:26:44;95366.44;;;14.63;62.76
9855;BME280;4966;48.112;9.282;2023-05-03T08:29:10;95372.66;;;13.61;64.86
9855;BME280;4966;48.112;9.282;2023-05-03T08:31:35;95367.41;;;13.69;65.25
9855;BME280;4966;48.112;9.282;2023-05-03T08:34:01;95364.56;;;13.65;66.34
9855;BME280;4966;48.112;9.282;2023-05-03T08:36:27;95364.94;;;14.65;63.35
9855;BME280;4966;48.112;9.282;2023-05-03T08:38:53;95368.53;;;14.82;63.13
9855;BME280;4966;48.112;9.282;2023-05-03T08:41:26;95369.44;;;14.86;61.83
9855;BME280;4966;48.112;9.282;2023-05-03T08:43:53;95370.00;;;15.36;60.89
9855;BME280;4966;48.112;9.282;2023-05-03T08:46:18;95371.84;;;15.03;62.27
9855;BME280;4966;48.112;9.282;2023-05-03T08:48:47;95378.56;;;15.78;59.58
9855;BME280;4966;48.112;9.282;2023-05-03T08:51:13;95380.47;;;15.18;60.52
9855;BME280;4966;48.112;9.282;2023-05-03T08:53:40;95379.59;;;15.29;59.66
9855;BME280;4966;48.112;9.282;2023-05-03T08:56:07;95378.78;;;15.13;60.00
9855;BME280;4966;48.112;9.282;2023-05-03T08:58:36;95382.59;;;15.08;60.64
9855;BME280;4966;48.112;9.282;2023-05-03T09:01:05;95378.97;;;14.64;60.31
9855;BME280;4966;48.112;9.282;2023-05-03T09:03:32;95379.63;;;14.08;63.30
9855;BME280;4966;48.112;9.282;2023-05-03T09:05:58;95382.44;;;14.24;64.65
9855;BME280;4966;48.112;9.282;2023-05-03T09:08:29;95376.97;;;14.12;65.31
9855;BME280;4966;48.112;9.282;2023-05-03T09:10:55;95378.41;;;14.46;64.23
9855;BME280;4966;48.112;9.282;2023-05-03T09:13:29;95381.75;;;14.15;65.81
9855;BME280;4966;48.112;9.282;2023-05-03T09:15:55;95383.38;;;14.03;66.25
9855;BME280;4966;48.112;9.282;2023-05-03T09:18:21;95383.94;;;14.21;65.10
9855;BME280;4966;48.112;9.282;2023-05-03T09:20:48;95377.53;;;14.30;64.95
9855;BME280;4966;48.112;9.282;2023-05-03T09:23:17;95382.41;;;14.49;64.58
9855;BME280;4966;48.112;9.282;2023-05-03T09:25:48;95374.19;;;14.61;64.09
9855;BME280;4966;48.112;9.282;2023-05-03T09:28:15;95378.00;;;14.84;65.64
9855;BME280;4966;48.112;9.282;2023-05-03T09:30:45;95383.38;;;14.81;63.28
9855;BME280;4966;48.112;9.282;2023-05-03T09:33:11;95380.50;;;14.89;63.82
9855;BME280;4966;48.112;9.282;2023-05-03T09:35:37;95391.19;;;15.23;62.61
9855;BME280;4966;48.112;9.282;2023-05-03T09:38:03;95377.50;;;15.23;61.24
9855;BME280;4966;48.112;9.282;2023-05-03T09:40:28;95373.69;;;15.27;60.35
9855;BME280;4966;48.112;9.282;2023-05-03T09:43:10;95369.88;;;15.32;61.50
9855;BME280;4966;48.112;9.282;2023-05-03T09:45:36;95379.03;;;15.08;60.80
9855;BME280;4966;48.112;9.282;2023-05-03T09:48:03;95368.56;;;15.26;61.72
9855;BME280;4966;48.112;9.282;2023-05-03T09:50:33;95363.19;;;15.45;61.95
9855;BME280;4966;48.112;9.282;2023-05-03T09:53:04;95365.22;;;15.48;60.11
9855;BME280;4966;48.112;9.282;2023-05-03T09:55:36;95360.22;;;16.14;59.57
9855;BME280;4966;48.112;9.282;2023-05-03T09:58:03;95361.28;;;15.93;60.21
9855;BME280;4966;48.112;9.282;2023-05-03T10:00:40;95363.22;;;15.93;60.56
9855;BME280;4966;48.112;9.282;2023-05-03T10:03:11;95358.16;;;15.63;58.35
9855;BME280;4966;48.112;9.282;2023-05-03T10:05:48;95360.25;;;16.33;59.70
9855;BME280;4966;48.112;9.282;2023-05-03T10:08:33;95351.16;;;16.49;59.84
9855;BME280;4966;48.112;9.282;2023-05-03T10:11:03;95348.19;;;16.38;58.75
9855;BME280;4966;48.112;9.282;2023-05-03T10:13:29;95352.75;;;16.14;57.77
9855;BME280;4966;48.112;9.282;2023-05-03T10:15:59;95346.06;;;16.31;58.20
9855;BME280;4966;48.112;9.282;2023-05-03T10:18:28;95330.50;;;16.74;57.52
9855;BME280;4966;48.112;9.282;2023-05-03T10:21:06;95345.47;;;16.77;56.98
9855;BME280;4966;48.112;9.282;2023-05-03T10:23:34;95343.38;;;17.09;56.87
9855;BME280;4966;48.112;9.282;2023-05-03T10:28:32;95344.91;;;17.07;57.79
9855;BME280;4966;48.112;9.282;2023-05-03T10:30:57;95340.09;;;17.00;56.49
9855;BME280;4966;48.112;9.282;2023-05-03T10:33:30;95337.84;;;16.86;57.51
9855;BME280;4966;48.112;9.282;2023-05-03T10:35:57;95346.06;;;17.06;57.41
9855;BME280;4966;48.112;9.282;2023-05-03T10:38:27;95345.78;;;17.11;56.14
9855;BME280;4966;48.112;9.282;2023-05-03T10:40:54;95347.41;;;17.35;54.68
9855;BME280;4966;48.112;9.282;2023-05-03T10:46:04;95345.56;;;16.80;53.51
9855;BME280;4966;48.112;9.282;2023-05-03T10:48:30;95338.91;;;16.62;54.36
9855;BME280;4966;48.112;9.282;2023-05-03T10:50:58;95338.38;;;16.76;56.69
9855;BME280;4966;48.112;9.282;2023-05-03T10:53:42;95338.09;;;17.20;55.04
9855;BME280;4966;48.112;9.282;2023-05-03T10:56:11;95344.06;;;16.28;54.45
9855;BME280;4966;48.112;9.282;2023-05-03T10:58:43;95337.53;;;16.52;54.17
9855;BME280;4966;48.112;9.282;2023-05-03T11:01:11;95343.66;;;16.65;53.14
9855;BME280;4966;48.112;9.282;2023-05-03T11:06:02;95336.81;;;16.94;53.59
9855;BME280;4966;48.112;9.282;2023-05-03T11:08:28;95343.34;;;16.86;55.35
9855;BME280;4966;48.112;9.282;2023-05-03T11:11:02;95343.13;;;17.37;53.71
9855;BME280;4966;48.112;9.282;2023-05-03T11:13:36;95334.59;;;17.65;54.71
9855;BME280;4966;48.112;9.282;2023-05-03T11:16:02;95335.72;;;18.37;50.27
9855;BME280;4966;48.112;9.282;2023-05-03T11:18:28;95337.25;;;18.91;47.66
9855;BME280;4966;48.112;9.282;2023-05-03T11:20:54;95335.44;;;19.81;47.23
9855;BME280;4966;48.112;9.282;2023-05-03T11:23:24;95325.25;;;22.64;42.68
9855;BME280;4966;48.112;9.282;2023-05-03T11:25:51;95325.06;;;23.25;38.17
9855;BME280;4966;48.112;9.282;2023-05-03T11:28:16;95311.06;;;22.19;37.33
9855;BME280;4966;48.112;9.282;2023-05-03T11:30:41;95327.94;;;23.04;38.89
9855;BME280;4966;48.112;9.282;2023-05-03T11:33:07;95331.59;;;23.60;37.93
9855;BME280;4966;48.112;9.282;2023-05-03T11:35:32;95324.22;;;24.44;36.25
9855;BME280;4966;48.112;9.282;2023-05-03T11:37:58;95317.13;;;26.47;34.14
9855;BME280;4966;48.112;9.282;2023-05-03T11:40:23;95314.19;;;26.07;32.27
9855;BME280;4966;48.112;9.282;2023-05-03T11:42:59;95312.16;;;25.30;35.08
9855;BME280;4966;48.112;9.282;2023-05-03T11:45:28;95322.25;;;25.47;32.18
9855;BME280;4966;48.112;9.282;2023-05-03T11:47:55;95322.31;;;23.88;35.32
9855;BME280;4966;48.112;9.282;2023-05-03T11:50:52;95304.28;;;25.21;35.18
9855;BME280;4966;48.112;9.282;2023-05-03T11:53:23;95300.31;;;25.76;32.61
9855;BME280;4966;48.112;9.282;2023-05-03T11:55:51;95306.06;;;27.63;30.75
9855;BME280;4966;48.112;9.282;2023-05-03T11:58:21;95296.28;;;25.54;32.23
9855;BME280;4966;48.112;9.282;2023-05-03T12:00:50;95308.13;;;24.24;34.94
9855;BME280;4966;48.112;9.282;2023-05-03T12:03:22;95305.69;;;25.63;33.68
9855;BME280;4966;48.112;9.282;2023-05-03T12:05:49;95299.16;;;25.74;33.85
9855;BME280;4966;48.112;9.282;2023-05-03T12:08:16;95303.84;;;26.55;32.29
9855;BME280;4966;48.112;9.282;2023-05-03T12:10:43;95301.38;;;26.80;32.00
9855;BME280;4966;48.112;9.282;2023-05-03T12:13:09;95294.06;;;26.66;32.16
9855;BME280;4966;48.112;9.282;2023-05-03T12:15:36;95301.97;;;26.91;30.28
9855;BME280;4966;48.112;9.282;2023-05-03T12:18:05;95291.91;;;26.54;30.65
9855;BME280;4966;48.112;9.282;2023-05-03T12:20:31;95300.81;;;27.29;29.58
9855;BME280;4966;48.112;9.282;2023-05-03T12:23:02;95296.03;;;25.72;31.89
9855;BME280;4966;48.112;9.282;2023-05-03T12:25:28;95295.72;;;25.93;32.22
9855;BME280;4966;48.112;9.282;2023-05-03T12:27:56;95300.19;;;25.87;31.22
9855;BME280;4966;48.112;9.282;2023-05-03T12:30:22;95297.19;;;25.47;32.19
9855;BME280;4966;48.112;9.282;2023-05-03T12:32:48;95296.72;;;26.93;30.16
9855;BME280;4966;48.112;9.282;2023-05-03T12:35:13;95291.56;;;27.68;29.97
9855;BME280;4966;48.112;9.282;2023-05-03T12:37:39;95283.13;;;27.88;30.01
9855;BME280;4966;48.112;9.282;2023-05-03T12:40:05;95279.69;;;27.28;28.90
9855;BME280;4966;48.112;9.282;2023-05-03T12:42:31;95291.56;;;24.89;30.58
9855;BME280;4966;48.112;9.282;2023-05-03T12:44:57;95285.94;;;24.93;32.40
9855;BME280;4966;48.112;9.282;2023-05-03T12:47:23;95290.25;;;23.76;34.66
9855;BME280;4966;48.112;9.282;2023-05-03T12:49:48;95293.44;;;23.08;36.57
9855;BME280;4966;48.112;9.282;2023-05-03T12:52:14;95287.94;;;25.27;34.41
9855;BME280;4966;48.112;9.282;2023-05-03T12:54:39;95279.50;;;27.15;30.46
9855;BME280;4966;48.112;9.282;2023-05-03T12:57:06;95283.13;;;26.95;30.19
9855;BME280;4966;48.112;9.282;2023-05-03T12:59:32;95276.66;;;27.39;29.54
9855;BME280;4966;48.112;9.282;2023-05-03T13:01:57;95269.31;;;26.45;28.89
9855;BME280;4966;48.112;9.282;2023-05-03T13:04:22;95264.78;;;27.34;28.75
9855;BME280;4966;48.112;9.282;2023-05-03T13:06:48;95269.31;;;23.61;33.00
9855;BME280;4966;48.112;9.282;2023-05-03T13:09:14;95270.16;;;24.07;33.55
9855;BME280;4966;48.112;9.282;2023-05-03T13:11:43;95274.25;;;25.90;29.63
9855;BME280;4966;48.112;9.282;2023-05-03T13:14:11;95271.84;;;26.39;29.40
9855;BME280;4966;48.112;9.282;2023-05-03T13:16:39;95276.28;;;27.36;27.89
9855;BME280;4966;48.112;9.282;2023-05-03T13:19:05;95269.50;;;27.38;28.39
9855;BME280;4966;48.112;9.282;2023-05-03T13:21:31;95260.97;;;28.59;28.25
9855;BME280;4966;48.112;9.282;2023-05-03T13:23:56;95263.88;;;29.53;27.50
9855;BME280;4966;48.112;9.282;2023-05-03T13:26:22;95257.50;;;29.78;25.52
9855;BME280;4966;48.112;9.282;2023-05-03T13:28:48;95253.09;;;31.07;24.54
9855;BME280;4966;48.112;9.282;2023-05-03T13:31:14;95247.19;;;29.75;26.63
9855;BME280;4966;48.112;9.282;2023-05-03T13:33:39;95248.25;;;28.71;26.14
9855;BME280;4966;48.112;9.282;2023-05-03T13:36:06;95242.22;;;26.45;26.65
9855;BME280;4966;48.112;9.282;2023-05-03T13:38:31;95241.81;;;27.43;27.01
9855;BME280;4966;48.112;9.282;2023-05-03T13:40:58;95231.19;;;24.82;30.40